Fsl New York — 9VBQ8 — position and weather

sailwx.info

Track history (hours):
 
Tides and Currents Weather Stations Pressure Air Temp Water Temp Dewpoint Dewpoint Depression Visibility Wind Speed Wind Dir Waves Ship Positions

Fsl New York

Last reported at 2014-Nov-02 05:29 UTC. Time now 2014-Nov-22 16:43 UTC.
Position N 49°54' W 003°17'.
Warning: this ship's position is 20 days out of date.

Length 138 m; draft 10 m.

Type: Tanker. MMSI: 565174000.

Date/timePositionNaut miles runAvg speedWind from/ knotsBaromVisibWave heightAir tempDewpointWater temp
2014-Nov-02 05:29N 49°54' W 003°17'132 9.5
2014-Nov-01 15:33N 50°31' E 000°01'1110.6
2014-Nov-01 14:33N 50°34' E 000°17'1110.8
2014-Nov-01 13:33N 50°37' E 000°33'1211.7
2014-Nov-01 12:33N 50°43' E 000°49'1312.7
2014-Nov-01 11:30N 50°51' E 001°06'1212.5
2014-Nov-01 10:33N 50°59' E 001°19'1211.9
2014-Nov-01 09:34N 51°07' E 001°34'1110.8
2014-Nov-01 08:33N 51°14' E 001°46'1010.5
2014-Nov-01 07:33N 51°24' E 001°54'1110.9
2014-Nov-01 06:34N 51°32' E 002°05'1111.3
2014-Nov-01 05:33N 51°41' E 002°17'1212.0
2014-Nov-01 04:33N 51°50' E 002°31'2612.8
2014-Nov-01 02:32N 52°14' E 002°43'4912.3
2014-Oct-31 22:33N 52°58' E 003°18'1211.2
2014-Oct-31 21:30N 53°09' E 003°24'1211.0
2014-Oct-31 20:25N 53°21' E 003°29'1011.1
2014-Oct-31 19:33N 53°30' E 003°34'1211.8
2014-Oct-31 18:33N 53°41' E 003°40'5011.9
2014-Oct-31 14:24N 54°06' E 004°53'1011.7
2014-Oct-31 13:33N 54°06' E 005°10'1111.4
2014-Oct-31 12:33N 54°07' E 005°30'1211.5
2014-Oct-31 11:32N 54°09' E 005°49'4212.3
2014-Oct-31 08:10N 54°13' E 007°00'812.7
2014-Oct-31 07:33N 54°13' E 007°13'1313.0
2014-Oct-31 06:33N 54°11' E 007°36'1313.2
2014-Oct-31 05:33N 54°05' E 007°55'1612.2
2014-Oct-31 04:16N 53°60' E 008°20'811.6
2014-Oct-31 03:33N 53°58' E 008°34'10 9.9
2014-Oct-31 02:33N 53°51' E 008°46'10 9.7
2014-Oct-31 01:33N 53°52' E 009°02'1010.2
2014-Oct-31 00:34N 53°51' E 009°19'1413.7
2014-Oct-30 23:33N 53°39' E 009°31'1312.9
2014-Oct-30 22:33N 53°33' E 009°50'5 4.8
2014-Oct-30 21:33N 53°31' E 009°57'0 0.0
2014-Oct-30 20:33N 53°31' E 009°57'0 0.0
2014-Oct-29 15:28N 53°31' E 009°57'2 2.6
2014-Oct-29 14:33N 53°32' E 009°55'1110.8
2014-Oct-29 13:33N 53°35' E 009°37'1212.3
2014-Oct-29 12:33N 53°45' E 009°25'1110.9
2014-Oct-29 11:34N 53°53' E 009°12'1010.1
2014-Oct-29 10:33N 53°51' E 008°55'9 9.1
2014-Oct-29 09:33N 53°54' E 008°41'1010.2
2014-Oct-29 08:33N 53°59' E 008°25'1312.7
2014-Oct-29 07:33N 53°60' E 008°04'9 9.3
2014-Oct-29 06:33N 54°04' E 007°50'5 5.3
2014-Oct-29 05:33N 54°07' E 007°42'10 9.9
2014-Oct-29 04:33N 54°15' E 007°33'1111.3
2014-Oct-29 03:33N 54°25' E 007°24'1111.4
2014-Oct-29 02:33N 54°35' E 007°14'1311.7
2014-Oct-29 01:27N 54°47' E 007°04'1011.4
2014-Oct-29 00:33N 54°57' E 006°60'1111.2
2014-Oct-28 23:33N 55°08' E 006°60'1111.3
2014-Oct-28 22:33N 55°19' E 006°60'1211.3
2014-Oct-28 21:31N 55°31' E 006°60'1110.9
2014-Oct-28 20:31N 55°42' E 006°60'220 8.7
2014-Oct-27 19:05N 59°05' E 009°38'2 0.1
2014-Oct-26 11:12N 59°06' E 009°35'5 5.2
2014-Oct-26 10:12N 59°03' E 009°43'3010.4
2014-Oct-26 07:21N 58°33' E 009°48'6612.9
2014-Oct-26 02:16N 57°43' E 008°27'913.1
2014-Oct-26 01:33N 57°37' E 008°15'1313.2
2014-Oct-26 00:33N 57°27' E 007°58'1313.5
2014-Oct-25 23:33N 57°17' E 007°41'8 8.0
2014-Oct-25 22:33N 57°12' E 007°30'1413.8
2014-Oct-25 21:31N 57°01' E 007°12'1313.5
2014-Oct-25 20:33N 56°49' E 007°08'1413.7
2014-Oct-25 19:33N 56°35' E 007°06'1413.7
2014-Oct-25 18:33N 56°21' E 007°04'1413.6
2014-Oct-25 17:33N 56°08' E 007°04'2713.7
2014-Oct-25 15:33N 55°40' E 007°00'1414.1
2014-Oct-25 14:33N 55°26' E 006°60'1414.1
2014-Oct-25 13:34N 55°12' E 007°00'1414.0
2014-Oct-25 12:33N 54°58' E 007°00'1513.9
2014-Oct-25 11:28N 54°43' E 006°60'1213.2
2014-Oct-25 10:34N 54°31' E 007°00'1111.3
2014-Oct-25 09:33N 54°21' E 007°09'1212.0
2014-Oct-25 08:33N 54°15' E 007°27'1111.4
2014-Oct-25 07:33N 54°10' E 007°44'1211.9
2014-Oct-25 06:33N 54°03' E 008°01'1312.9
2014-Oct-25 05:33N 53°60' E 008°22'1414.3
2014-Oct-25 04:33N 53°53' E 008°43'1313.3
2014-Oct-25 03:33N 53°53' E 009°06'1111.0
2014-Oct-25 02:33N 53°48' E 009°23'1111.2
2014-Oct-25 01:33N 53°38' E 009°32'10 9.8
2014-Oct-25 00:33N 53°34' E 009°46'6 6.4
2014-Oct-24 23:33N 53°31' E 009°56'1 0.1
2014-Oct-24 02:23N 53°30' E 009°58'1 1.3
2014-Oct-24 01:33N 53°31' E 009°56'9 9.4
2014-Oct-24 00:34N 53°34' E 009°41'1514.1
2014-Oct-23 23:30N 53°45' E 009°24'1212.7
2014-Oct-23 22:33N 53°53' E 009°09'1413.6
2014-Oct-23 21:33N 53°51' E 008°46'1414.0
2014-Oct-23 20:34N 53°59' E 008°27'1413.7
2014-Oct-23 19:33N 54°00' E 008°03'1313.6
2014-Oct-23 18:34N 54°07' E 007°43'1313.4
2014-Oct-23 17:33N 54°09' E 007°21'4212.7
2014-Oct-23 14:14N 54°07' E 006°09'912.5
2014-Oct-23 13:33N 54°06' E 005°54'1212.5
2014-Oct-23 12:33N 54°04' E 005°33'1312.7
2014-Oct-23 11:32N 54°03' E 005°11'1312.8
2014-Oct-23 10:31N 54°01' E 004°49'6513.0
2014-Oct-23 05:31N 53°14' E 003°33'  
Track history (hours):
 
Tides and Currents Weather Stations Pressure Air Temp Water Temp Dewpoint Dewpoint Depression Visibility Wind Speed Wind Dir Waves Ship Positions

Fsl New York

Last reported at 2014-Nov-02 05:29 UTC. Time now 2014-Nov-22 16:43 UTC.
Position N 49°54' W 003°17'.
Warning: this ship's position is 20 days out of date.

Length 138 m; draft 10 m.

Type: Tanker. MMSI: 565174000.

Date/timePositionNaut miles runAvg speedWind from/ knotsBaromVisibWave heightAir tempDewpointWater temp
2014-Nov-02 05:29N 49°54' W 003°17'132 9.5
2014-Nov-01 15:33N 50°31' E 000°01'1110.6
2014-Nov-01 14:33N 50°34' E 000°17'1110.8
2014-Nov-01 13:33N 50°37' E 000°33'1211.7
2014-Nov-01 12:33N 50°43' E 000°49'1312.7
2014-Nov-01 11:30N 50°51' E 001°06'1212.5
2014-Nov-01 10:33N 50°59' E 001°19'1211.9
2014-Nov-01 09:34N 51°07' E 001°34'1110.8
2014-Nov-01 08:33N 51°14' E 001°46'1010.5
2014-Nov-01 07:33N 51°24' E 001°54'1110.9
2014-Nov-01 06:34N 51°32' E 002°05'1111.3
2014-Nov-01 05:33N 51°41' E 002°17'1212.0
2014-Nov-01 04:33N 51°50' E 002°31'2612.8
2014-Nov-01 02:32N 52°14' E 002°43'4912.3
2014-Oct-31 22:33N 52°58' E 003°18'1211.2
2014-Oct-31 21:30N 53°09' E 003°24'1211.0
2014-Oct-31 20:25N 53°21' E 003°29'1011.1
2014-Oct-31 19:33N 53°30' E 003°34'1211.8
2014-Oct-31 18:33N 53°41' E 003°40'5011.9
2014-Oct-31 14:24N 54°06' E 004°53'1011.7
2014-Oct-31 13:33N 54°06' E 005°10'1111.4
2014-Oct-31 12:33N 54°07' E 005°30'1211.5
2014-Oct-31 11:32N 54°09' E 005°49'4212.3
2014-Oct-31 08:10N 54°13' E 007°00'812.7
2014-Oct-31 07:33N 54°13' E 007°13'1313.0
2014-Oct-31 06:33N 54°11' E 007°36'1313.2
2014-Oct-31 05:33N 54°05' E 007°55'1612.2
2014-Oct-31 04:16N 53°60' E 008°20'811.6
2014-Oct-31 03:33N 53°58' E 008°34'10 9.9
2014-Oct-31 02:33N 53°51' E 008°46'10 9.7
2014-Oct-31 01:33N 53°52' E 009°02'1010.2
2014-Oct-31 00:34N 53°51' E 009°19'1413.7
2014-Oct-30 23:33N 53°39' E 009°31'1312.9
2014-Oct-30 22:33N 53°33' E 009°50'5 4.8
2014-Oct-30 21:33N 53°31' E 009°57'0 0.0
2014-Oct-30 20:33N 53°31' E 009°57'0 0.0
2014-Oct-29 15:28N 53°31' E 009°57'2 2.6
2014-Oct-29 14:33N 53°32' E 009°55'1110.8
2014-Oct-29 13:33N 53°35' E 009°37'1212.3
2014-Oct-29 12:33N 53°45' E 009°25'1110.9
2014-Oct-29 11:34N 53°53' E 009°12'1010.1
2014-Oct-29 10:33N 53°51' E 008°55'9 9.1
2014-Oct-29 09:33N 53°54' E 008°41'1010.2
2014-Oct-29 08:33N 53°59' E 008°25'1312.7
2014-Oct-29 07:33N 53°60' E 008°04'9 9.3
2014-Oct-29 06:33N 54°04' E 007°50'5 5.3
2014-Oct-29 05:33N 54°07' E 007°42'10 9.9
2014-Oct-29 04:33N 54°15' E 007°33'1111.3
2014-Oct-29 03:33N 54°25' E 007°24'1111.4
2014-Oct-29 02:33N 54°35' E 007°14'1311.7
2014-Oct-29 01:27N 54°47' E 007°04'1011.4
2014-Oct-29 00:33N 54°57' E 006°60'1111.2
2014-Oct-28 23:33N 55°08' E 006°60'1111.3
2014-Oct-28 22:33N 55°19' E 006°60'1211.3
2014-Oct-28 21:31N 55°31' E 006°60'1110.9
2014-Oct-28 20:31N 55°42' E 006°60'220 8.7
2014-Oct-27 19:05N 59°05' E 009°38'2 0.1
2014-Oct-26 11:12N 59°06' E 009°35'5 5.2
2014-Oct-26 10:12N 59°03' E 009°43'3010.4
2014-Oct-26 07:21N 58°33' E 009°48'6612.9
2014-Oct-26 02:16N 57°43' E 008°27'913.1
2014-Oct-26 01:33N 57°37' E 008°15'1313.2
2014-Oct-26 00:33N 57°27' E 007°58'1313.5
2014-Oct-25 23:33N 57°17' E 007°41'8 8.0
2014-Oct-25 22:33N 57°12' E 007°30'1413.8
2014-Oct-25 21:31N 57°01' E 007°12'1313.5
2014-Oct-25 20:33N 56°49' E 007°08'1413.7
2014-Oct-25 19:33N 56°35' E 007°06'1413.7
2014-Oct-25 18:33N 56°21' E 007°04'1413.6
2014-Oct-25 17:33N 56°08' E 007°04'2713.7
2014-Oct-25 15:33N 55°40' E 007°00'1414.1
2014-Oct-25 14:33N 55°26' E 006°60'1414.1
2014-Oct-25 13:34N 55°12' E 007°00'1414.0
2014-Oct-25 12:33N 54°58' E 007°00'1513.9
2014-Oct-25 11:28N 54°43' E 006°60'1213.2
2014-Oct-25 10:34N 54°31' E 007°00'1111.3
2014-Oct-25 09:33N 54°21' E 007°09'1212.0
2014-Oct-25 08:33N 54°15' E 007°27'1111.4
2014-Oct-25 07:33N 54°10' E 007°44'1211.9
2014-Oct-25 06:33N 54°03' E 008°01'1312.9
2014-Oct-25 05:33N 53°60' E 008°22'1414.3
2014-Oct-25 04:33N 53°53' E 008°43'1313.3
2014-Oct-25 03:33N 53°53' E 009°06'1111.0
2014-Oct-25 02:33N 53°48' E 009°23'1111.2
2014-Oct-25 01:33N 53°38' E 009°32'10 9.8
2014-Oct-25 00:33N 53°34' E 009°46'6 6.4
2014-Oct-24 23:33N 53°31' E 009°56'1 0.1
2014-Oct-24 02:23N 53°30' E 009°58'1 1.3
2014-Oct-24 01:33N 53°31' E 009°56'9 9.4
2014-Oct-24 00:34N 53°34' E 009°41'1514.1
2014-Oct-23 23:30N 53°45' E 009°24'1212.7
2014-Oct-23 22:33N 53°53' E 009°09'1413.6
2014-Oct-23 21:33N 53°51' E 008°46'1414.0
2014-Oct-23 20:34N 53°59' E 008°27'1413.7
2014-Oct-23 19:33N 54°00' E 008°03'1313.6
2014-Oct-23 18:34N 54°07' E 007°43'1313.4
2014-Oct-23 17:33N 54°09' E 007°21'4212.7
2014-Oct-23 14:14N 54°07' E 006°09'912.5
2014-Oct-23 13:33N 54°06' E 005°54'1212.5
2014-Oct-23 12:33N 54°04' E 005°33'1312.7
2014-Oct-23 11:32N 54°03' E 005°11'1312.8
2014-Oct-23 10:31N 54°01' E 004°49'6513.0
2014-Oct-23 05:31N 53°14' E 003°33'  

Dump ship's entire track history